Thunder radar more information blitzortung!


Rain radar more information rain snow radar


Visit our other weather sites:

Template documentation
and downloads

And another site



There are no active watches, warnings or advisories

Nearby METAR Reports

   
EHVK - Volkel Rnlafb, Netherlands
Distance from station: SW 11 mi
Updated: Jul 24 2019 12:55 am
Few Clouds  
Few Clouds  
   Wind: ENE 2.3 mph
Wind: ENE 2.3 mph
Temperature: 66.2°F
Dew Point: 60.8°F
Humidity: 83%
Barometer: 29.94 inHg
Clouds: Few Clouds
Visibility: More than 6 mi
Cloud details: Few Clouds 41000 ft
EHVK 240455Z AUTO 07002KT 9999 FEW410 19/16 Q1014 BLU
EDLV - Niederrhein, Germany
Distance from station: SE 15 mi
Updated: Jul 24 2019 12:50 am
Clear  
Clear  
   Wind: SE 5.8 mph
Wind: SE 5.8 mph
Temperature: 73.4°F
Dew Point: 60.8°F
Humidity: 65%
Barometer: 29.94 inHg
Visibility: More than 6 mi
Cloud details: Clear
EDLV 240450Z 13005KT CAVOK 23/16 Q1014
EHDL - Deelen Rnlafb, Netherlands
Distance from station: N 22 mi
Updated: Jul 24 2019 12:55 am
Overcast  
Overcast  
   Wind: ESE 3.5 mph
Wind: ESE 3.5 mph
Temperature: 71.6°F
Dew Point: 59°F
Humidity: 65%
Barometer: 29.94 inHg
Clouds: Overcast
Visibility: More than 6 mi
Cloud details: Overcast 37000 ft
EHDL 240455Z AUTO 12003KT 110V190 9999 OVC370 22/15 Q1014 BLU
EHEH - Eindhoven Rnlafb, Netherlands
Distance from station: SW 30 mi
Updated: Jul 24 2019 12:55 am
Few Clouds  
Few Clouds  
   Wind: SE 8.1 mph
Wind: SE 8.1 mph
Temperature: 71.6°F
Dew Point: 59°F
Humidity: 65%
Barometer: 29.94 inHg
Clouds: Few Clouds
Visibility: More than 6 mi
Cloud details: Few Clouds 35000 ft
EHEH 240455Z AUTO 13007KT 100V160 9999 FEW350 22/15 Q1014 BLU 14005KT CAVOK
EHGR - Gilze-Rijen Rnla, Netherlands
Distance from station: WSW 43 mi
Updated: Jul 24 2019 12:55 am
Clear  
Clear  
   Wind: SE 4.6 mph
Wind: SE 4.6 mph
Temperature: 69.8°F
Dew Point: 60.8°F
Humidity: 73%
Barometer: 29.91 inHg
Clouds: Clear
Visibility: More than 6 mi
Cloud details: Clear
EHGR 240455Z AUTO 14004KT 9999 NCD 21/16 Q1013 BLU
EBBL - Kleine-Brogel(Ba, Belgium
Distance from station: SSW 44 mi
Updated: Jul 24 2019 12:50 am
Few Clouds  
Few Clouds  
   Wind: varies 1.2 mph
Wind: varies 1.2 mph
Temperature: 66.2°F
Dew Point: 59°F
Humidity: 78%
Barometer: 29.94 inHg
Clouds: Few Clouds
Visibility: More than 6 mi
Cloud details: Few Clouds 30000 ft
EBBL 240450Z VRB01KT 9999 FEW300 19/15 Q1014 BLU BLU

Script developed by  Saratoga-weather.org Adapted for the template by  Weerstation Leuven

You find our weather info also at:

Weather Underground

AWEKAS

Citizen Weather Observer Program (CWOP)

HAMweather, WeatherForYou, PWS Weather

Equipment we use:

Weather-station
Davis VP2

Weather-program
Weather Display

Weather-server
HP ProDesk 600 G1

Provider
1&1 IONOS

Davis VP2

Weather Display

HP ProDesk 600 G1

1&1 IONOS